sensor_id;sensor_type;location;lat;lon;timestamp;P1;durP1;ratioP1;P2;durP2;ratioP2
40150;SDS011;25866;52.420;10.640;2023-07-24T00:00:34;1.80;;;1.20;;
40150;SDS011;25866;52.420;10.640;2023-07-24T00:03:01;1.55;;;1.00;;
40150;SDS011;25866;52.420;10.640;2023-07-24T00:05:34;1.80;;;1.05;;
40150;SDS011;25866;52.420;10.640;2023-07-24T00:07:59;1.20;;;1.00;;
40150;SDS011;25866;52.420;10.640;2023-07-24T00:10:25;2.03;;;1.10;;
40150;SDS011;25866;52.420;10.640;2023-07-24T00:12:50;0.98;;;0.88;;
40150;SDS011;25866;52.420;10.640;2023-07-24T00:15:16;1.30;;;0.90;;
40150;SDS011;25866;52.420;10.640;2023-07-24T00:17:42;1.63;;;1.00;;
40150;SDS011;25866;52.420;10.640;2023-07-24T00:20:08;1.95;;;1.13;;
40150;SDS011;25866;52.420;10.640;2023-07-24T00:22:36;1.48;;;1.05;;
40150;SDS011;25866;52.420;10.640;2023-07-24T00:25:01;1.80;;;1.30;;
40150;SDS011;25866;52.420;10.640;2023-07-24T00:27:27;1.30;;;1.10;;
40150;SDS011;25866;52.420;10.640;2023-07-24T00:29:53;3.63;;;1.10;;
40150;SDS011;25866;52.420;10.640;2023-07-24T00:32:18;1.10;;;0.88;;
40150;SDS011;25866;52.420;10.640;2023-07-24T00:34:44;1.40;;;1.05;;
40150;SDS011;25866;52.420;10.640;2023-07-24T00:37:12;1.80;;;1.17;;
40150;SDS011;25866;52.420;10.640;2023-07-24T00:39:38;4.40;;;1.05;;
40150;SDS011;25866;52.420;10.640;2023-07-24T00:42:15;1.33;;;1.20;;
40150;SDS011;25866;52.420;10.640;2023-07-24T00:44:40;1.10;;;1.00;;
40150;SDS011;25866;52.420;10.640;2023-07-24T00:47:07;2.95;;;1.17;;
40150;SDS011;25866;52.420;10.640;2023-07-24T00:49:33;1.73;;;1.10;;
40150;SDS011;25866;52.420;10.640;2023-07-24T00:52:01;4.20;;;1.20;;
40150;SDS011;25866;52.420;10.640;2023-07-24T00:54:27;1.90;;;0.98;;
40150;SDS011;25866;52.420;10.640;2023-07-24T00:56:56;1.30;;;1.20;;
40150;SDS011;25866;52.420;10.640;2023-07-24T00:59:21;2.05;;;1.27;;
40150;SDS011;25866;52.420;10.640;2023-07-24T01:01:53;1.90;;;1.23;;
40150;SDS011;25866;52.420;10.640;2023-07-24T01:04:19;1.27;;;1.00;;
40150;SDS011;25866;52.420;10.640;2023-07-24T01:06:44;1.85;;;1.10;;
40150;SDS011;25866;52.420;10.640;2023-07-24T01:09:10;3.20;;;1.00;;
40150;SDS011;25866;52.420;10.640;2023-07-24T01:11:51;4.38;;;1.25;;
40150;SDS011;25866;52.420;10.640;2023-07-24T01:14:44;1.20;;;1.02;;
40150;SDS011;25866;52.420;10.640;2023-07-24T01:17:15;3.85;;;1.38;;
40150;SDS011;25866;52.420;10.640;2023-07-24T01:22:38;1.35;;;1.25;;
40150;SDS011;25866;52.420;10.640;2023-07-24T01:28:06;3.30;;;1.48;;
40150;SDS011;25866;52.420;10.640;2023-07-24T01:30:43;2.08;;;1.10;;
40150;SDS011;25866;52.420;10.640;2023-07-24T01:33:09;1.50;;;1.15;;
40150;SDS011;25866;52.420;10.640;2023-07-24T01:35:35;2.15;;;1.30;;
40150;SDS011;25866;52.420;10.640;2023-07-24T01:38:03;3.33;;;1.05;;
40150;SDS011;25866;52.420;10.640;2023-07-24T01:43:10;2.55;;;1.20;;
40150;SDS011;25866;52.420;10.640;2023-07-24T01:45:36;1.75;;;1.13;;
40150;SDS011;25866;52.420;10.640;2023-07-24T01:48:03;1.67;;;1.30;;
40150;SDS011;25866;52.420;10.640;2023-07-24T01:50:29;3.15;;;1.20;;
40150;SDS011;25866;52.420;10.640;2023-07-24T01:52:56;2.80;;;1.15;;
40150;SDS011;25866;52.420;10.640;2023-07-24T01:55:21;3.78;;;1.20;;
40150;SDS011;25866;52.420;10.640;2023-07-24T01:57:47;1.73;;;1.30;;
40150;SDS011;25866;52.420;10.640;2023-07-24T02:00:13;1.40;;;1.00;;
40150;SDS011;25866;52.420;10.640;2023-07-24T02:02:39;2.20;;;1.00;;
40150;SDS011;25866;52.420;10.640;2023-07-24T02:05:05;1.55;;;1.10;;
40150;SDS011;25866;52.420;10.640;2023-07-24T02:07:31;1.02;;;0.93;;
40150;SDS011;25866;52.420;10.640;2023-07-24T02:09:57;4.50;;;1.13;;
40150;SDS011;25866;52.420;10.640;2023-07-24T02:12:26;2.30;;;1.25;;
40150;SDS011;25866;52.420;10.640;2023-07-24T02:14:51;1.20;;;1.00;;
40150;SDS011;25866;52.420;10.640;2023-07-24T02:17:18;1.33;;;1.00;;
40150;SDS011;25866;52.420;10.640;2023-07-24T02:19:44;1.20;;;1.10;;
40150;SDS011;25866;52.420;10.640;2023-07-24T02:22:13;2.17;;;1.00;;
40150;SDS011;25866;52.420;10.640;2023-07-24T02:24:40;2.20;;;1.30;;
40150;SDS011;25866;52.420;10.640;2023-07-24T02:27:05;1.30;;;1.00;;
40150;SDS011;25866;52.420;10.640;2023-07-24T02:29:32;2.97;;;1.00;;
40150;SDS011;25866;52.420;10.640;2023-07-24T02:34:40;1.75;;;1.20;;
40150;SDS011;25866;52.420;10.640;2023-07-24T02:37:06;1.30;;;1.17;;
40150;SDS011;25866;52.420;10.640;2023-07-24T02:39:31;2.03;;;1.23;;
40150;SDS011;25866;52.420;10.640;2023-07-24T02:41:58;1.80;;;1.20;;
40150;SDS011;25866;52.420;10.640;2023-07-24T02:44:23;1.50;;;1.40;;
40150;SDS011;25866;52.420;10.640;2023-07-24T02:46:49;1.23;;;1.10;;
40150;SDS011;25866;52.420;10.640;2023-07-24T02:49:15;1.55;;;1.27;;
40150;SDS011;25866;52.420;10.640;2023-07-24T02:54:09;1.20;;;1.02;;
40150;SDS011;25866;52.420;10.640;2023-07-24T02:56:35;1.60;;;1.00;;
40150;SDS011;25866;52.420;10.640;2023-07-24T02:59:00;4.13;;;1.35;;
40150;SDS011;25866;52.420;10.640;2023-07-24T03:01:26;1.52;;;1.10;;
40150;SDS011;25866;52.420;10.640;2023-07-24T03:03:52;3.28;;;1.27;;
40150;SDS011;25866;52.420;10.640;2023-07-24T03:06:17;2.78;;;1.42;;
40150;SDS011;25866;52.420;10.640;2023-07-24T03:08:43;2.20;;;1.30;;
40150;SDS011;25866;52.420;10.640;2023-07-24T03:11:09;1.52;;;1.05;;
40150;SDS011;25866;52.420;10.640;2023-07-24T03:13:37;3.13;;;1.10;;
40150;SDS011;25866;52.420;10.640;2023-07-24T03:16:06;1.33;;;1.10;;
40150;SDS011;25866;52.420;10.640;2023-07-24T03:18:31;1.52;;;1.15;;
40150;SDS011;25866;52.420;10.640;2023-07-24T03:20:57;1.58;;;1.20;;
40150;SDS011;25866;52.420;10.640;2023-07-24T03:23:26;2.10;;;1.40;;
40150;SDS011;25866;52.420;10.640;2023-07-24T03:25:52;2.72;;;1.20;;
40150;SDS011;25866;52.420;10.640;2023-07-24T03:28:18;1.30;;;1.20;;
40150;SDS011;25866;52.420;10.640;2023-07-24T03:30:43;1.33;;;1.20;;
40150;SDS011;25866;52.420;10.640;2023-07-24T03:33:10;2.13;;;1.38;;
40150;SDS011;25866;52.420;10.640;2023-07-24T03:35:37;2.67;;;1.40;;
40150;SDS011;25866;52.420;10.640;2023-07-24T03:38:04;1.27;;;1.00;;
40150;SDS011;25866;52.420;10.640;2023-07-24T03:40:30;1.58;;;1.00;;
40150;SDS011;25866;52.420;10.640;2023-07-24T03:42:55;2.28;;;1.40;;
40150;SDS011;25866;52.420;10.640;2023-07-24T03:45:21;2.08;;;1.30;;
40150;SDS011;25866;52.420;10.640;2023-07-24T03:47:47;2.00;;;1.30;;
40150;SDS011;25866;52.420;10.640;2023-07-24T03:50:12;1.52;;;1.23;;
40150;SDS011;25866;52.420;10.640;2023-07-24T03:52:53;2.10;;;1.10;;
40150;SDS011;25866;52.420;10.640;2023-07-24T03:55:19;2.03;;;1.20;;
40150;SDS011;25866;52.420;10.640;2023-07-24T03:57:45;1.30;;;1.20;;
40150;SDS011;25866;52.420;10.640;2023-07-24T04:00:10;1.20;;;1.05;;
40150;SDS011;25866;52.420;10.640;2023-07-24T04:02:43;1.90;;;1.20;;
40150;SDS011;25866;52.420;10.640;2023-07-24T04:05:08;1.88;;;1.10;;
40150;SDS011;25866;52.420;10.640;2023-07-24T04:07:34;2.85;;;1.25;;
40150;SDS011;25866;52.420;10.640;2023-07-24T04:10:02;1.55;;;1.05;;
40150;SDS011;25866;52.420;10.640;2023-07-24T04:12:38;1.52;;;1.40;;
40150;SDS011;25866;52.420;10.640;2023-07-24T04:15:03;2.03;;;1.13;;
40150;SDS011;25866;52.420;10.640;2023-07-24T04:17:29;1.10;;;1.00;;
40150;SDS011;25866;52.420;10.640;2023-07-24T04:19:55;1.30;;;1.20;;
40150;SDS011;25866;52.420;10.640;2023-07-24T04:22:21;1.75;;;1.10;;
40150;SDS011;25866;52.420;10.640;2023-07-24T04:24:47;1.20;;;1.10;;
40150;SDS011;25866;52.420;10.640;2023-07-24T04:27:12;1.40;;;1.10;;
40150;SDS011;25866;52.420;10.640;2023-07-24T04:29:38;1.30;;;1.10;;
40150;SDS011;25866;52.420;10.640;2023-07-24T04:32:04;2.78;;;1.10;;
40150;SDS011;25866;52.420;10.640;2023-07-24T04:34:29;1.38;;;1.27;;
40150;SDS011;25866;52.420;10.640;2023-07-24T04:36:55;1.40;;;1.08;;
40150;SDS011;25866;52.420;10.640;2023-07-24T04:39:21;2.08;;;1.40;;
40150;SDS011;25866;52.420;10.640;2023-07-24T04:41:46;1.63;;;1.38;;
40150;SDS011;25866;52.420;10.640;2023-07-24T04:44:29;1.70;;;1.15;;
40150;SDS011;25866;52.420;10.640;2023-07-24T04:46:57;1.65;;;1.48;;
40150;SDS011;25866;52.420;10.640;2023-07-24T04:49:23;1.25;;;1.15;;
40150;SDS011;25866;52.420;10.640;2023-07-24T04:51:49;1.60;;;1.35;;
40150;SDS011;25866;52.420;10.640;2023-07-24T04:54:17;1.38;;;1.23;;
40150;SDS011;25866;52.420;10.640;2023-07-24T04:56:43;1.45;;;1.30;;
40150;SDS011;25866;52.420;10.640;2023-07-24T04:59:08;1.30;;;1.20;;
40150;SDS011;25866;52.420;10.640;2023-07-24T05:01:34;1.90;;;1.30;;
40150;SDS011;25866;52.420;10.640;2023-07-24T05:04:06;2.95;;;1.42;;
40150;SDS011;25866;52.420;10.640;2023-07-24T05:06:31;2.25;;;1.25;;
40150;SDS011;25866;52.420;10.640;2023-07-24T05:08:57;1.80;;;1.20;;
40150;SDS011;25866;52.420;10.640;2023-07-24T05:11:23;1.85;;;1.48;;
40150;SDS011;25866;52.420;10.640;2023-07-24T05:13:48;3.10;;;1.48;;
40150;SDS011;25866;52.420;10.640;2023-07-24T05:16:14;2.08;;;1.50;;
40150;SDS011;25866;52.420;10.640;2023-07-24T05:18:40;2.63;;;1.20;;
40150;SDS011;25866;52.420;10.640;2023-07-24T05:21:05;2.58;;;1.30;;
40150;SDS011;25866;52.420;10.640;2023-07-24T05:23:34;1.80;;;1.50;;
40150;SDS011;25866;52.420;10.640;2023-07-24T05:26:00;2.03;;;1.60;;
40150;SDS011;25866;52.420;10.640;2023-07-24T05:28:27;2.38;;;1.60;;
40150;SDS011;25866;52.420;10.640;2023-07-24T05:30:53;2.08;;;1.60;;
40150;SDS011;25866;52.420;10.640;2023-07-24T05:35:59;3.08;;;2.00;;
40150;SDS011;25866;52.420;10.640;2023-07-24T05:38:26;3.42;;;1.75;;
40150;SDS011;25866;52.420;10.640;2023-07-24T05:40:58;4.15;;;2.05;;
40150;SDS011;25866;52.420;10.640;2023-07-24T05:43:38;5.35;;;2.30;;
40150;SDS011;25866;52.420;10.640;2023-07-24T05:46:04;5.82;;;2.30;;
40150;SDS011;25866;52.420;10.640;2023-07-24T05:48:29;5.00;;;2.55;;
40150;SDS011;25866;52.420;10.640;2023-07-24T05:50:55;2.72;;;1.88;;
40150;SDS011;25866;52.420;10.640;2023-07-24T05:53:21;4.85;;;2.20;;
40150;SDS011;25866;52.420;10.640;2023-07-24T05:55:46;5.22;;;2.00;;
40150;SDS011;25866;52.420;10.640;2023-07-24T05:58:12;3.97;;;2.28;;
40150;SDS011;25866;52.420;10.640;2023-07-24T06:00:38;3.88;;;2.13;;
40150;SDS011;25866;52.420;10.640;2023-07-24T06:03:04;3.45;;;1.95;;
40150;SDS011;25866;52.420;10.640;2023-07-24T06:05:42;2.47;;;1.75;;
40150;SDS011;25866;52.420;10.640;2023-07-24T06:08:08;4.57;;;2.10;;
40150;SDS011;25866;52.420;10.640;2023-07-24T06:10:36;1.73;;;1.55;;
40150;SDS011;25866;52.420;10.640;2023-07-24T06:13:02;3.05;;;1.83;;
40150;SDS011;25866;52.420;10.640;2023-07-24T06:15:32;3.38;;;1.73;;
40150;SDS011;25866;52.420;10.640;2023-07-24T06:17:57;2.45;;;1.63;;
40150;SDS011;25866;52.420;10.640;2023-07-24T06:20:23;2.95;;;1.77;;
40150;SDS011;25866;52.420;10.640;2023-07-24T06:22:48;2.90;;;1.70;;
40150;SDS011;25866;52.420;10.640;2023-07-24T06:25:15;5.28;;;1.95;;
40150;SDS011;25866;52.420;10.640;2023-07-24T06:27:41;3.97;;;2.00;;
40150;SDS011;25866;52.420;10.640;2023-07-24T06:30:07;3.47;;;1.92;;
40150;SDS011;25866;52.420;10.640;2023-07-24T06:32:32;2.95;;;2.03;;
40150;SDS011;25866;52.420;10.640;2023-07-24T06:34:59;3.13;;;2.25;;
40150;SDS011;25866;52.420;10.640;2023-07-24T06:37:25;2.65;;;2.10;;
40150;SDS011;25866;52.420;10.640;2023-07-24T06:39:50;2.40;;;2.00;;
40150;SDS011;25866;52.420;10.640;2023-07-24T06:42:16;2.80;;;1.80;;
40150;SDS011;25866;52.420;10.640;2023-07-24T06:44:49;3.35;;;1.80;;
40150;SDS011;25866;52.420;10.640;2023-07-24T06:47:15;3.00;;;1.80;;
40150;SDS011;25866;52.420;10.640;2023-07-24T06:49:40;4.15;;;1.67;;
40150;SDS011;25866;52.420;10.640;2023-07-24T06:52:06;2.70;;;1.73;;
40150;SDS011;25866;52.420;10.640;2023-07-24T06:54:32;2.40;;;1.80;;
40150;SDS011;25866;52.420;10.640;2023-07-24T06:56:58;2.67;;;1.90;;
40150;SDS011;25866;52.420;10.640;2023-07-24T06:59:23;4.75;;;1.80;;
40150;SDS011;25866;52.420;10.640;2023-07-24T07:01:49;2.10;;;1.90;;
40150;SDS011;25866;52.420;10.640;2023-07-24T07:04:15;2.10;;;1.88;;
40150;SDS011;25866;52.420;10.640;2023-07-24T07:06:41;3.28;;;1.60;;
40150;SDS011;25866;52.420;10.640;2023-07-24T07:09:07;3.85;;;2.00;;
40150;SDS011;25866;52.420;10.640;2023-07-24T07:11:32;2.28;;;1.65;;
40150;SDS011;25866;52.420;10.640;2023-07-24T07:13:58;3.42;;;1.77;;
40150;SDS011;25866;52.420;10.640;2023-07-24T07:16:25;2.45;;;1.90;;
40150;SDS011;25866;52.420;10.640;2023-07-24T07:18:50;3.03;;;1.85;;
40150;SDS011;25866;52.420;10.640;2023-07-24T07:21:17;2.40;;;2.05;;
40150;SDS011;25866;52.420;10.640;2023-07-24T07:23:42;2.55;;;1.92;;
40150;SDS011;25866;52.420;10.640;2023-07-24T07:26:08;4.90;;;2.35;;
40150;SDS011;25866;52.420;10.640;2023-07-24T07:28:34;3.58;;;2.00;;
40150;SDS011;25866;52.420;10.640;2023-07-24T07:30:59;4.55;;;2.50;;
40150;SDS011;25866;52.420;10.640;2023-07-24T07:33:25;4.97;;;2.42;;
40150;SDS011;25866;52.420;10.640;2023-07-24T07:35:53;3.35;;;2.20;;
40150;SDS011;25866;52.420;10.640;2023-07-24T07:38:19;2.92;;;2.10;;
40150;SDS011;25866;52.420;10.640;2023-07-24T07:40:47;3.65;;;2.42;;
40150;SDS011;25866;52.420;10.640;2023-07-24T07:43:13;3.85;;;2.17;;
40150;SDS011;25866;52.420;10.640;2023-07-24T07:45:39;3.35;;;1.85;;
40150;SDS011;25866;52.420;10.640;2023-07-24T07:48:05;2.80;;;2.13;;
40150;SDS011;25866;52.420;10.640;2023-07-24T07:50:31;4.78;;;2.28;;
40150;SDS011;25866;52.420;10.640;2023-07-24T07:52:57;2.95;;;2.05;;
40150;SDS011;25866;52.420;10.640;2023-07-24T07:55:23;3.30;;;2.10;;
40150;SDS011;25866;52.420;10.640;2023-07-24T07:57:48;2.78;;;2.20;;
40150;SDS011;25866;52.420;10.640;2023-07-24T08:00:14;3.78;;;2.08;;
40150;SDS011;25866;52.420;10.640;2023-07-24T08:02:40;5.70;;;2.15;;
40150;SDS011;25866;52.420;10.640;2023-07-24T08:05:07;4.68;;;2.15;;
40150;SDS011;25866;52.420;10.640;2023-07-24T08:07:33;4.72;;;2.40;;
40150;SDS011;25866;52.420;10.640;2023-07-24T08:09:59;3.42;;;2.20;;
40150;SDS011;25866;52.420;10.640;2023-07-24T08:12:25;3.55;;;2.45;;
40150;SDS011;25866;52.420;10.640;2023-07-24T08:14:50;3.15;;;2.15;;
40150;SDS011;25866;52.420;10.640;2023-07-24T08:17:18;8.68;;;2.97;;
40150;SDS011;25866;52.420;10.640;2023-07-24T08:19:45;6.85;;;2.28;;
40150;SDS011;25866;52.420;10.640;2023-07-24T08:22:10;5.90;;;2.63;;
40150;SDS011;25866;52.420;10.640;2023-07-24T08:24:36;4.03;;;2.53;;
40150;SDS011;25866;52.420;10.640;2023-07-24T08:27:04;8.68;;;2.33;;
40150;SDS011;25866;52.420;10.640;2023-07-24T08:29:30;3.13;;;2.15;;
40150;SDS011;25866;52.420;10.640;2023-07-24T08:31:57;5.80;;;2.67;;
40150;SDS011;25866;52.420;10.640;2023-07-24T08:34:23;3.53;;;2.22;;
40150;SDS011;25866;52.420;10.640;2023-07-24T08:36:49;3.78;;;2.50;;
40150;SDS011;25866;52.420;10.640;2023-07-24T08:39:14;3.15;;;2.28;;
40150;SDS011;25866;52.420;10.640;2023-07-24T08:41:40;3.22;;;2.33;;
40150;SDS011;25866;52.420;10.640;2023-07-24T08:44:09;4.60;;;2.33;;
40150;SDS011;25866;52.420;10.640;2023-07-24T08:46:41;5.00;;;2.40;;
40150;SDS011;25866;52.420;10.640;2023-07-24T08:49:11;3.97;;;2.33;;
40150;SDS011;25866;52.420;10.640;2023-07-24T08:51:38;7.13;;;2.80;;
40150;SDS011;25866;52.420;10.640;2023-07-24T08:54:08;3.45;;;2.50;;
40150;SDS011;25866;52.420;10.640;2023-07-24T08:56:38;4.00;;;2.38;;
40150;SDS011;25866;52.420;10.640;2023-07-24T08:59:06;4.00;;;2.40;;
40150;SDS011;25866;52.420;10.640;2023-07-24T09:01:32;4.25;;;2.45;;
40150;SDS011;25866;52.420;10.640;2023-07-24T09:03:58;4.00;;;2.65;;
40150;SDS011;25866;52.420;10.640;2023-07-24T09:06:26;4.50;;;2.75;;
40150;SDS011;25866;52.420;10.640;2023-07-24T09:08:53;4.18;;;2.53;;
40150;SDS011;25866;52.420;10.640;2023-07-24T09:11:19;5.47;;;3.03;;
40150;SDS011;25866;52.420;10.640;2023-07-24T09:13:45;7.07;;;3.35;;
40150;SDS011;25866;52.420;10.640;2023-07-24T09:16:26;8.73;;;2.88;;
40150;SDS011;25866;52.420;10.640;2023-07-24T09:18:52;5.38;;;2.75;;
40150;SDS011;25866;52.420;10.640;2023-07-24T09:21:28;5.22;;;2.83;;
40150;SDS011;25866;52.420;10.640;2023-07-24T09:23:54;4.78;;;2.88;;
40150;SDS011;25866;52.420;10.640;2023-07-24T09:26:22;8.68;;;2.85;;
40150;SDS011;25866;52.420;10.640;2023-07-24T09:28:54;4.68;;;2.65;;
40150;SDS011;25866;52.420;10.640;2023-07-24T09:31:20;5.68;;;2.45;;
40150;SDS011;25866;52.420;10.640;2023-07-24T09:33:46;5.28;;;2.13;;
40150;SDS011;25866;52.420;10.640;2023-07-24T09:36:11;3.08;;;2.10;;
40150;SDS011;25866;52.420;10.640;2023-07-24T09:38:38;3.72;;;2.20;;
40150;SDS011;25866;52.420;10.640;2023-07-24T09:41:05;3.17;;;1.85;;
40150;SDS011;25866;52.420;10.640;2023-07-24T09:43:31;4.65;;;2.20;;
40150;SDS011;25866;52.420;10.640;2023-07-24T09:46:00;3.15;;;2.13;;
40150;SDS011;25866;52.420;10.640;2023-07-24T09:48:26;3.47;;;2.50;;
40150;SDS011;25866;52.420;10.640;2023-07-24T09:50:53;3.55;;;2.50;;
40150;SDS011;25866;52.420;10.640;2023-07-24T09:53:31;4.05;;;2.45;;
40150;SDS011;25866;52.420;10.640;2023-07-24T09:56:16;2.47;;;2.15;;
40150;SDS011;25866;52.420;10.640;2023-07-24T09:58:48;9.88;;;2.92;;
40150;SDS011;25866;52.420;10.640;2023-07-24T10:01:19;8.30;;;2.70;;
40150;SDS011;25866;52.420;10.640;2023-07-24T10:03:46;10.63;;;2.78;;
40150;SDS011;25866;52.420;10.640;2023-07-24T10:06:13;3.33;;;2.33;;
40150;SDS011;25866;52.420;10.640;2023-07-24T10:08:40;5.32;;;3.00;;
40150;SDS011;25866;52.420;10.640;2023-07-24T10:11:11;3.10;;;2.50;;
40150;SDS011;25866;52.420;10.640;2023-07-24T10:13:37;3.00;;;2.50;;
40150;SDS011;25866;52.420;10.640;2023-07-24T10:16:04;4.15;;;2.78;;
40150;SDS011;25866;52.420;10.640;2023-07-24T10:18:32;6.15;;;2.60;;
40150;SDS011;25866;52.420;10.640;2023-07-24T10:21:09;3.80;;;2.60;;
40150;SDS011;25866;52.420;10.640;2023-07-24T10:23:36;3.67;;;2.80;;
40150;SDS011;25866;52.420;10.640;2023-07-24T10:26:05;2.85;;;2.55;;
40150;SDS011;25866;52.420;10.640;2023-07-24T10:28:46;5.53;;;2.75;;
40150;SDS011;25866;52.420;10.640;2023-07-24T10:31:21;4.07;;;2.50;;
40150;SDS011;25866;52.420;10.640;2023-07-24T10:33:49;3.53;;;2.75;;
40150;SDS011;25866;52.420;10.640;2023-07-24T10:36:19;5.53;;;2.75;;
40150;SDS011;25866;52.420;10.640;2023-07-24T10:38:53;3.22;;;2.70;;
40150;SDS011;25866;52.420;10.640;2023-07-24T10:41:20;3.42;;;2.70;;
40150;SDS011;25866;52.420;10.640;2023-07-24T10:43:47;3.28;;;2.70;;
40150;SDS011;25866;52.420;10.640;2023-07-24T10:46:14;3.35;;;2.72;;
40150;SDS011;25866;52.420;10.640;2023-07-24T10:48:47;5.03;;;2.90;;
40150;SDS011;25866;52.420;10.640;2023-07-24T10:51:14;3.53;;;2.50;;
40150;SDS011;25866;52.420;10.640;2023-07-24T10:53:49;3.70;;;2.75;;
40150;SDS011;25866;52.420;10.640;2023-07-24T10:56:15;3.45;;;2.83;;
40150;SDS011;25866;52.420;10.640;2023-07-24T10:58:55;5.03;;;3.05;;
40150;SDS011;25866;52.420;10.640;2023-07-24T11:01:20;3.05;;;2.45;;
40150;SDS011;25866;52.420;10.640;2023-07-24T11:03:48;2.92;;;2.72;;
40150;SDS011;25866;52.420;10.640;2023-07-24T11:06:15;3.60;;;2.70;;
40150;SDS011;25866;52.420;10.640;2023-07-24T11:11:40;2.63;;;2.25;;
40150;SDS011;25866;52.420;10.640;2023-07-24T11:14:13;6.93;;;2.88;;
40150;SDS011;25866;52.420;10.640;2023-07-24T11:16:47;3.85;;;2.58;;
40150;SDS011;25866;52.420;10.640;2023-07-24T11:19:21;3.08;;;2.30;;
40150;SDS011;25866;52.420;10.640;2023-07-24T11:21:50;11.82;;;2.80;;
40150;SDS011;25866;52.420;10.640;2023-07-24T11:24:17;19.70;;;3.47;;
40150;SDS011;25866;52.420;10.640;2023-07-24T11:26:43;9.85;;;2.75;;
40150;SDS011;25866;52.420;10.640;2023-07-24T11:29:12;4.43;;;2.40;;
40150;SDS011;25866;52.420;10.640;2023-07-24T11:31:38;4.10;;;2.30;;
40150;SDS011;25866;52.420;10.640;2023-07-24T11:34:04;3.92;;;2.17;;
40150;SDS011;25866;52.420;10.640;2023-07-24T11:36:30;4.93;;;2.10;;
40150;SDS011;25866;52.420;10.640;2023-07-24T11:38:57;3.65;;;2.20;;
40150;SDS011;25866;52.420;10.640;2023-07-24T11:41:26;2.30;;;2.10;;
40150;SDS011;25866;52.420;10.640;2023-07-24T11:43:52;3.85;;;1.85;;
40150;SDS011;25866;52.420;10.640;2023-07-24T11:46:24;2.45;;;1.90;;
40150;SDS011;25866;52.420;10.640;2023-07-24T11:51:28;2.58;;;2.10;;
40150;SDS011;25866;52.420;10.640;2023-07-24T11:54:03;4.45;;;1.98;;
40150;SDS011;25866;52.420;10.640;2023-07-24T11:56:31;2.58;;;1.90;;
40150;SDS011;25866;52.420;10.640;2023-07-24T11:59:09;2.22;;;2.03;;
40150;SDS011;25866;52.420;10.640;2023-07-24T12:01:39;2.25;;;1.80;;
40150;SDS011;25866;52.420;10.640;2023-07-24T12:04:04;2.60;;;2.10;;
40150;SDS011;25866;52.420;10.640;2023-07-24T12:06:30;2.67;;;2.05;;
40150;SDS011;25866;52.420;10.640;2023-07-24T12:09:11;2.72;;;2.13;;
40150;SDS011;25866;52.420;10.640;2023-07-24T12:11:40;2.08;;;1.83;;
40150;SDS011;25866;52.420;10.640;2023-07-24T12:14:11;8.70;;;2.00;;
40150;SDS011;25866;52.420;10.640;2023-07-24T12:16:38;9.13;;;2.28;;
40150;SDS011;25866;52.420;10.640;2023-07-24T12:21:43;5.57;;;2.28;;
40150;SDS011;25866;52.420;10.640;2023-07-24T12:24:09;4.68;;;2.33;;
40150;SDS011;25866;52.420;10.640;2023-07-24T12:26:35;5.75;;;2.47;;
40150;SDS011;25866;52.420;10.640;2023-07-24T12:29:00;3.67;;;2.70;;
40150;SDS011;25866;52.420;10.640;2023-07-24T12:31:26;3.50;;;2.10;;
40150;SDS011;25866;52.420;10.640;2023-07-24T12:33:52;2.95;;;2.40;;
40150;SDS011;25866;52.420;10.640;2023-07-24T12:36:17;3.90;;;2.60;;
40150;SDS011;25866;52.420;10.640;2023-07-24T12:38:49;3.92;;;2.22;;
40150;SDS011;25866;52.420;10.640;2023-07-24T12:41:15;3.50;;;2.25;;
40150;SDS011;25866;52.420;10.640;2023-07-24T12:43:40;2.58;;;2.38;;
40150;SDS011;25866;52.420;10.640;2023-07-24T12:46:06;3.30;;;2.47;;
40150;SDS011;25866;52.420;10.640;2023-07-24T12:48:32;3.20;;;2.90;;
40150;SDS011;25866;52.420;10.640;2023-07-24T12:50:57;3.50;;;2.40;;
40150;SDS011;25866;52.420;10.640;2023-07-24T12:53:25;2.50;;;2.30;;
40150;SDS011;25866;52.420;10.640;2023-07-24T12:55:50;3.03;;;2.33;;
40150;SDS011;25866;52.420;10.640;2023-07-24T12:58:16;6.00;;;2.75;;
40150;SDS011;25866;52.420;10.640;2023-07-24T13:00:50;2.90;;;2.60;;
40150;SDS011;25866;52.420;10.640;2023-07-24T13:03:15;3.17;;;2.17;;
40150;SDS011;25866;52.420;10.640;2023-07-24T13:05:41;4.63;;;2.28;;
40150;SDS011;25866;52.420;10.640;2023-07-24T13:08:07;3.67;;;1.80;;
40150;SDS011;25866;52.420;10.640;2023-07-24T13:10:34;4.50;;;2.10;;
40150;SDS011;25866;52.420;10.640;2023-07-24T13:12:59;2.38;;;1.90;;
40150;SDS011;25866;52.420;10.640;2023-07-24T13:15:26;2.22;;;2.03;;
40150;SDS011;25866;52.420;10.640;2023-07-24T13:17:52;2.90;;;2.40;;
40150;SDS011;25866;52.420;10.640;2023-07-24T13:20:24;2.60;;;2.40;;
40150;SDS011;25866;52.420;10.640;2023-07-24T13:22:50;2.55;;;2.35;;
40150;SDS011;25866;52.420;10.640;2023-07-24T13:25:16;3.08;;;2.53;;
40150;SDS011;25866;52.420;10.640;2023-07-24T13:27:41;2.75;;;2.30;;
40150;SDS011;25866;52.420;10.640;2023-07-24T13:30:07;2.35;;;2.13;;
40150;SDS011;25866;52.420;10.640;2023-07-24T13:32:33;4.05;;;2.60;;
40150;SDS011;25866;52.420;10.640;2023-07-24T13:34:58;3.08;;;2.80;;
40150;SDS011;25866;52.420;10.640;2023-07-24T13:37:25;4.90;;;2.60;;
40150;SDS011;25866;52.420;10.640;2023-07-24T13:39:53;5.18;;;2.83;;
40150;SDS011;25866;52.420;10.640;2023-07-24T13:42:18;6.28;;;3.15;;
40150;SDS011;25866;52.420;10.640;2023-07-24T13:44:44;4.03;;;3.33;;
40150;SDS011;25866;52.420;10.640;2023-07-24T13:47:10;3.03;;;2.72;;
40150;SDS011;25866;52.420;10.640;2023-07-24T13:49:36;3.85;;;2.92;;
40150;SDS011;25866;52.420;10.640;2023-07-24T13:52:01;4.18;;;3.03;;
40150;SDS011;25866;52.420;10.640;2023-07-24T13:54:27;3.50;;;3.20;;
40150;SDS011;25866;52.420;10.640;2023-07-24T13:56:53;4.15;;;3.13;;
40150;SDS011;25866;52.420;10.640;2023-07-24T13:59:18;4.65;;;2.97;;
40150;SDS011;25866;52.420;10.640;2023-07-24T14:01:44;3.05;;;2.65;;
40150;SDS011;25866;52.420;10.640;2023-07-24T14:04:10;2.92;;;2.40;;
40150;SDS011;25866;52.420;10.640;2023-07-24T14:06:37;2.63;;;2.33;;
40150;SDS011;25866;52.420;10.640;2023-07-24T14:09:03;3.65;;;2.50;;
40150;SDS011;25866;52.420;10.640;2023-07-24T14:11:28;3.10;;;2.70;;
40150;SDS011;25866;52.420;10.640;2023-07-24T14:13:54;4.97;;;2.10;;
40150;SDS011;25866;52.420;10.640;2023-07-24T14:16:20;2.38;;;2.17;;
40150;SDS011;25866;52.420;10.640;2023-07-24T14:18:45;2.55;;;2.10;;
40150;SDS011;25866;52.420;10.640;2023-07-24T14:21:13;2.58;;;1.70;;
40150;SDS011;25866;52.420;10.640;2023-07-24T14:23:39;4.47;;;2.30;;
40150;SDS011;25866;52.420;10.640;2023-07-24T14:26:04;2.67;;;1.98;;
40150;SDS011;25866;52.420;10.640;2023-07-24T14:28:30;2.65;;;1.88;;
40150;SDS011;25866;52.420;10.640;2023-07-24T14:31:03;3.15;;;2.03;;
40150;SDS011;25866;52.420;10.640;2023-07-24T14:33:29;2.30;;;2.10;;
40150;SDS011;25866;52.420;10.640;2023-07-24T14:35:55;2.45;;;2.22;;
40150;SDS011;25866;52.420;10.640;2023-07-24T14:38:20;2.90;;;2.03;;
40150;SDS011;25866;52.420;10.640;2023-07-24T14:40:49;2.35;;;1.63;;
40150;SDS011;25866;52.420;10.640;2023-07-24T14:43:15;2.25;;;2.00;;
40150;SDS011;25866;52.420;10.640;2023-07-24T14:45:41;2.55;;;2.10;;
40150;SDS011;25866;52.420;10.640;2023-07-24T14:48:06;2.40;;;2.20;;
40150;SDS011;25866;52.420;10.640;2023-07-24T14:50:38;2.88;;;2.22;;
40150;SDS011;25866;52.420;10.640;2023-07-24T14:53:04;2.70;;;2.00;;
40150;SDS011;25866;52.420;10.640;2023-07-24T14:55:30;2.15;;;1.85;;
40150;SDS011;25866;52.420;10.640;2023-07-24T14:57:56;2.15;;;1.95;;